METAR Data
IDs: Format: Raw Decoded Include TAF

Data at: 1156 UTC 21 Oct 2018

KHHF 211135Z AUTO 00000KT 10SM CLR 02/01 A3035 RMK AO2 T00190013
KHHF 211115Z AUTO 00000KT 10SM CLR 04/03 A3035 RMK AO2 T00360030
KHHF 211055Z AUTO 00000KT 10SM CLR 04/03 A3035 RMK AO2 T00350028
KHHF 211035Z AUTO 00000KT 7SM CLR 04/03 A3034 RMK AO2 T00420034
KHHF 211015Z AUTO 00000KT 7SM CLR 04/03 A3034 RMK AO2 T00410030
KHHF 210955Z AUTO 00000KT 10SM CLR 04/03 A3035 RMK AO2 T00410034
KHHF 210935Z AUTO 00000KT 10SM CLR 05/04 A3035 RMK AO2 T00450036
KHHF 210915Z AUTO 00000KT 10SM CLR 05/04 A3035 RMK AO2 T00460036
KHHF 210855Z AUTO 00000KT 10SM CLR 05/04 A3035 RMK AO2 T00530040
KHHF 210835Z AUTO 00000KT 7SM CLR 06/04 A3036 RMK AO2 T00560040
KHHF 210815Z AUTO 00000KT 10SM CLR 07/05 A3036 RMK AO2 T00690049
KHHF 210755Z AUTO 00000KT 10SM CLR 06/04 A3037 RMK AO2 T00610042
KHHF 210735Z AUTO 00000KT 10SM CLR 07/05 A3037 RMK AO2 T00680045
KHHF 210715Z AUTO 00000KT 10SM CLR 08/05 A3037 RMK AO2 T00750050
KHHF 210655Z AUTO 00000KT 10SM CLR 07/05 A3037 RMK AO2 T00710046
KHHF 210635Z AUTO 00000KT 7SM CLR 07/05 A3037 RMK AO2 T00740047
KHHF 210615Z AUTO 00000KT 10SM CLR 07/05 A3037 RMK AO2 T00700046
KHHF 210555Z AUTO 00000KT 10SM CLR 07/05 A3037 RMK AO2 T00680046 10199 20062 402250036
KHHF 210535Z AUTO 00000KT 10SM CLR 06/05 A3038 RMK AO2 T00620045
KHHF 210515Z AUTO 00000KT 10SM CLR 07/05 A3038 RMK AO2 T00690047
KHHF 210455Z AUTO 00000KT 10SM CLR 07/05 A3038 RMK AO2 T00700047
KHHF 210435Z AUTO 00000KT 10SM CLR 07/05 A3038 RMK AO2 T00700048
KHHF 210415Z AUTO 22003KT 10SM CLR 08/05 A3038 RMK AO2 T00770048
KHHF 210355Z AUTO 00000KT 10SM CLR 08/05 A3038 RMK AO2 T00820048
KHHF 210335Z AUTO 24003KT 10SM CLR 08/05 A3038 RMK AO2 T00810051
KHHF 210315Z AUTO 24005KT 10SM CLR 09/05 A3037 RMK AO2 T00850051
KHHF 210255Z AUTO 24004KT 10SM CLR 09/05 A3037 RMK AO2 T00880051
KHHF 210235Z AUTO 23003KT 10SM CLR 08/05 A3036 RMK AO2 T00840046
KHHF 210215Z AUTO 00000KT 10SM CLR 09/04 A3036 RMK AO2 T00880044
KHHF 210155Z AUTO 00000KT 10SM CLR 12/04 A3036 RMK AO2 T01150040
KHHF 210135Z AUTO 22003KT 10SM CLR 12/05 A3035 RMK AO2 T01150047
KHHF 210115Z AUTO 23003KT 10SM CLR 12/05 A3035 RMK AO2 T01160045
KHHF 210055Z AUTO 18003KT 10SM CLR 10/05 A3035 RMK AO2 T01020050
KHHF 210035Z AUTO 16005KT 10SM CLR 14/04 A3034 RMK AO2 T01440035
KHHF 210015Z AUTO 14003KT 5SM HZ CLR 17/03 A3034 RMK AO2 T01670031
KHHF 202355Z AUTO 00000KT 10SM CLR 20/01 A3033 RMK AO2 T02010005 10225 20197
KHHF 202335Z AUTO 00000KT 10SM CLR 21/00 A3033 RMK AO2 T02110003
KHHF 202315Z AUTO 00000KT 10SM CLR 22/00 A3033 RMK AO2 T02151004
KHHF 202255Z AUTO 09003KT 10SM CLR 22/00 A3033 RMK AO2 T02171005
KHHF 202235Z AUTO 00000KT 10SM CLR 22/00 A3033 RMK AO2 T02191005
KHHF 202215Z AUTO 00000KT 10SM CLR 22/M01 A3033 RMK AO2 T02191011
KHHF 202155Z AUTO 11006KT 10SM CLR 22/M01 A3033 RMK AO2 T02241010
KHHF 202135Z AUTO 05004KT 10SM CLR 22/M01 A3033 RMK AO2 T02241009
KHHF 202115Z AUTO 00000KT 10SM CLR 22/M02 A3033 RMK AO2 T02211023
KHHF 202055Z AUTO 04005KT 10SM CLR 22/M01 A3034 RMK AO2 T02221014
KHHF 202035Z AUTO 00000KT 10SM CLR 22/M02 A3034 RMK AO2 T02211024
KHHF 202015Z AUTO 02006KT 10SM CLR 22/M02 A3034 RMK AO2 T02201025
KHHF 201955Z AUTO 03003KT 10SM CLR 22/M03 A3035 RMK AO2 T02201026
KHHF 201935Z AUTO 07004KT 10SM CLR 22/M01 A3035 RMK AO2 T02171013
KHHF 201915Z AUTO 10003KT 10SM CLR 22/M01 A3036 RMK AO2 T02161007
KHHF 201855Z AUTO 04003KT 10SM CLR 21/M01 A3038 RMK AO2 T02111007
KHHF 201835Z AUTO 00000KT 10SM CLR 21/00 A3039 RMK AO2 T02101003
KHHF 201815Z AUTO 03004KT 10SM CLR 21/00 A3040 RMK AO2 T02080000
KHHF 201755Z AUTO 00000KT 10SM CLR 20/00 A3040 RMK AO2 T01990003 10201 20036
KHHF 201735Z AUTO 00000KT 10SM CLR 19/02 A3041 RMK AO2 T01910017
KHHF 201715Z AUTO 00000KT 10SM CLR 19/03 A3041 RMK AO2 T01850029
KHHF 201655Z AUTO 00000KT 10SM CLR 18/04 A3042 RMK AO2 T01800043
KHHF 201635Z AUTO 00000KT 10SM CLR 16/05 A3042 RMK AO2 T01640048
KHHF 201615Z AUTO 00000KT 10SM CLR 16/05 A3042 RMK AO2 T01560050
KHHF 201550Z AUTO 36004KT 10SM CLR 15/05 A3042 RMK AO2 T01470052
KHHF 201535Z AUTO 34003KT 10SM CLR 14/05 A3042 RMK AO2 T01410048
KHHF 201515Z AUTO 35005KT 10SM CLR 13/06 A3042 RMK AO2 T01340060
KHHF 201455Z AUTO 33004KT 10SM CLR 13/06 A3042 RMK AO2 T01260064
KHHF 201435Z AUTO 00000KT 10SM CLR 10/07 A3042 RMK AO2 T01010070
KHHF 201415Z AUTO 00000KT 10SM CLR 08/07 A3040 RMK AO2 T00840065
KHHF 201355Z AUTO 00000KT 10SM CLR 08/06 A3039 RMK AO2 T00780063
KHHF 201335Z AUTO 00000KT 10SM CLR 05/04 A3038 RMK AO2 T00520044
KHHF 201315Z AUTO 00000KT 10SM CLR 04/03 A3038 RMK AO2 T00410031
KHHF 201255Z AUTO 00000KT 10SM CLR 04/03 A3037 RMK AO2 T00370030
KHHF 201235Z AUTO 23004KT 10SM CLR 04/04 A3036 RMK AO2 T00430035
KHHF 201215Z AUTO 00000KT 10SM CLR 05/03 A3035 RMK AO2 T00450034
KHHF 201155Z AUTO 22003KT 10SM CLR 06/04 A3035 RMK AO2 T00620044 10113 20044
KHHF 201135Z AUTO 21003KT 10SM CLR 06/04 A3034 RMK AO2 T00620040
KHHF 201115Z AUTO 00000KT 10SM CLR 07/05 A3034 RMK AO2 T00680045
KHHF 201055Z AUTO 00000KT 10SM CLR 07/05 A3033 RMK AO2 T00700048
KHHF 201035Z AUTO 00000KT 10SM CLR 09/05 A3033 RMK AO2 T00900053
KHHF 201015Z AUTO 24004KT 10SM CLR 08/06 A3032 RMK AO2 T00840055
KHHF 200955Z AUTO 26003KT 10SM CLR 10/06 A3032 RMK AO2 T00960055
KHHF 200935Z AUTO 36003KT 10SM CLR 11/06 A3031 RMK AO2 T01050057
KHHF 200915Z AUTO 00000KT 10SM CLR 10/06 A3031 RMK AO2 T00990062
KHHF 200855Z AUTO 28003KT 10SM CLR 10/07 A3030 RMK AO2 T01000065
KHHF 200835Z AUTO 00000KT 10SM CLR 08/06 A3030 RMK AO2 T00840063
KHHF 200815Z AUTO 00000KT 10SM CLR 09/07 A3030 RMK AO2 T00910066
KHHF 200755Z AUTO 00000KT 10SM CLR 09/07 A3030 RMK AO2 T00910070
KHHF 200735Z AUTO 00000KT 10SM CLR 09/07 A3029 RMK AO2 T00920070
KHHF 200715Z AUTO 00000KT 10SM CLR 11/08 A3029 RMK AO2 T01070075
KHHF 200655Z AUTO 00000KT 10SM CLR 11/08 A3028 RMK AO2 T01120078
KHHF 200635Z AUTO 00000KT 10SM CLR 09/07 A3028 RMK AO2 T00850072
KHHF 200615Z AUTO 24003KT 10SM CLR 08/07 A3027 RMK AO2 T00750065
KHHF 200555Z AUTO 00000KT 10SM CLR 10/08 A3026 RMK AO2 T01000075 10220 20090 402520090
KHHF 200535Z AUTO 00000KT 10SM CLR 10/08 A3026 RMK AO2 T01010076
KHHF 200515Z AUTO 00000KT 10SM CLR 11/08 A3026 RMK AO2 T01110078
KHHF 200455Z AUTO 25003KT 10SM CLR 10/08 A3025 RMK AO2 T01030077
KHHF 200435Z AUTO 00000KT 10SM CLR 11/08 A3024 RMK AO2 T01130080
KHHF 200415Z AUTO 00000KT 10SM CLR 12/08 A3023 RMK AO2 T01150082
KHHF 200355Z AUTO 00000KT 10SM CLR 11/09 A3022 RMK AO2 T01070085
KHHF 200335Z AUTO 21003KT 10SM CLR 10/09 A3022 RMK AO2 T00970085
KHHF 200315Z AUTO 34004KT 10SM CLR 09/08 A3022 RMK AO2 T00910078
KHHF 200255Z AUTO 00000KT 10SM CLR 10/08 A3020 RMK AO2 T00950081
KHHF 200235Z AUTO 22003KT 10SM CLR 11/09 A3020 RMK AO2 T01120087
KHHF 200215Z AUTO 23003KT 10SM CLR 12/09 A3019 RMK AO2 T01160090
KHHF 200155Z AUTO 00000KT 10SM CLR 11/09 A3019 RMK AO2 T01100089
KHHF 200135Z AUTO 21003KT 10SM CLR 12/09 A3018 RMK AO2 T01190086
KHHF 200115Z AUTO 21003KT 10SM CLR 13/09 A3018 RMK AO2 T01300090
KHHF 200055Z AUTO 00000KT 10SM CLR 14/09 A3017 RMK AO2 T01440090
KHHF 200035Z AUTO 00000KT 10SM CLR 19/08 A3016 RMK AO2 T01850082
KHHF 200015Z AUTO 00000KT 10SM CLR 20/08 A3016 RMK AO2 T02010077